Time;durP1;ratioP1;P1;durP2;ratioP2;P2;SDS_P1;SDS_P2;PMS_P1;PMS_P2;Temp;Humidity;BMP_temperature;BMP_pressure;BME280_temperature;BME280_humidity;BME280_pressure;Samples;Min_cycle;Max_cycle;Signal;HPM_P1;HPM_P2
2022/10/29 00:02:19;;;;;;;;;;;;;;;12.88;85.5918;102222.9;;;;-77
2022/10/29 00:07:19;;;;;;;;;;;;;;;12.83;85.69238;102214.5;;;;-74
2022/10/29 00:12:19;;;;;;;;;;;;;;;12.75;85.73242;102220;;;;-74
2022/10/29 00:17:19;;;;;;;;;;;;;;;12.71;85.93555;102223.3;;;;-75
2022/10/29 00:22:19;;;;;;;;;;;;;;;12.64;85.3125;102205.9;;;;-74
2022/10/29 00:23:15;;;;;;;7.3;2.1;;;;;;;;;;;;;-74
2022/10/29 00:27:19;;;;;;;;;;;;;;;12.62;85.53125;102200.7;;;;-74
2022/10/29 00:32:19;;;;;;;;;;;;;;;12.58;85.44434;102197;;;;-74
2022/10/29 00:37:19;;;;;;;;;;;;;;;12.56;85.31738;102197.6;;;;-74
2022/10/29 00:42:21;;;;;;;;;;;;;;;12.52;85.0459;102198.4;;;;-71
2022/10/29 00:47:22;;;;;;;;;;;;;;;12.45;85.04102;102188.1;;;;-72
2022/10/29 00:52:21;;;;;;;;;;;;;;;12.37;84.99414;102185.9;;;;-71
2022/10/29 00:53:21;;;;;;;7.4;1.8;;;;;;;;;;;;;-72
2022/10/29 00:57:20;;;;;;;;;;;;;;;12.33;84.99609;102180.7;;;;-71
2022/10/29 01:02:19;;;;;;;;;;;;;;;12.27;85.15137;102175.6;;;;-75
2022/10/29 01:07:19;;;;;;;;;;;;;;;12.2;85.18164;102170.3;;;;-75
2022/10/29 01:12:35;;;;;;;;;;;;;;;12.18;85.10059;102172.4;;;;-75
2022/10/29 01:17:30;;;;;;;;;;;;;;;12.13;85.0791;102166.1;;;;-75
2022/10/29 01:22:22;;;;;;;;;;;;;;;12.09;85.20508;102159.1;;;;-76
2022/10/29 01:23:31;;;;;;;8.2;2.2;;;;;;;;;;;;;-76
2022/10/29 01:27:30;;;;;;;;;;;;;;;12.07;85.87793;102147.8;;;;-76
2022/10/29 01:32:24;;;;;;;;;;;;;;;12.06;85.32031;102136.9;;;;-74
2022/10/29 01:37:23;;;;;;;;;;;;;;;12.06;85.51074;102137.5;;;;-74
2022/10/29 01:42:26;;;;;;;;;;;;;;;12.07;85.47656;102133.2;;;;-76
2022/10/29 01:47:21;;;;;;;;;;;;;;;12.04;85.80371;102147.7;;;;-74
2022/10/29 01:52:20;;;;;;;;;;;;;;;12.02;85.66992;102146.2;;;;-75
2022/10/29 01:53:20;;;;;;;9.1;2.2;;;;;;;;;;;;;-75
2022/10/29 01:57:34;;;;;;;;;;;;;;;12;85.62012;102156.2;;;;-75
2022/10/29 02:02:26;;;;;;;;;;;;;;;11.98;85.95996;102151.4;;;;-75
2022/10/29 02:07:23;;;;;;;;;;;;;;;11.92;85.91406;102138.3;;;;-75
2022/10/29 02:12:26;;;;;;;;;;;;;;;11.91;86.04492;102144.6;;;;-75
2022/10/29 02:17:19;;;;;;;;;;;;;;;11.92;86.00293;102136.6;;;;-77
2022/10/29 02:22:19;;;;;;;;;;;;;;;11.87;86.33691;102122.8;;;;-75
2022/10/29 02:23:20;;;;;;;8.5;3.1;;;;;;;;;;;;;-75
2022/10/29 02:27:19;;;;;;;;;;;;;;;11.82;85.9502;102119.2;;;;-75
2022/10/29 02:32:19;;;;;;;;;;;;;;;11.83;86.33984;102119.3;;;;-74
2022/10/29 02:37:19;;;;;;;;;;;;;;;11.84;86.24316;102103.4;;;;-75
2022/10/29 02:42:19;;;;;;;;;;;;;;;11.86;85.87988;102108.1;;;;-75
2022/10/29 02:47:19;;;;;;;;;;;;;;;11.89;86.11035;102128.7;;;;-74
2022/10/29 02:52:19;;;;;;;;;;;;;;;11.89;86.37402;102118;;;;-77
2022/10/29 02:53:22;;;;;;;9.8;4.3;;;;;;;;;;;;;-76
2022/10/29 02:57:23;;;;;;;;;;;;;;;11.92;86.34766;102122.6;;;;-75
2022/10/29 03:02:19;;;;;;;;;;;;;;;11.93;86.25977;102109;;;;-75
2022/10/29 03:07:19;;;;;;;;;;;;;;;11.94;86.06348;102104.8;;;;-75
2022/10/29 03:12:19;;;;;;;;;;;;;;;11.95;85.99902;102098.2;;;;-75
2022/10/29 03:17:19;;;;;;;;;;;;;;;11.95;86.09668;102097.5;;;;-74
2022/10/29 03:22:19;;;;;;;;;;;;;;;11.95;85.99902;102102.7;;;;-74
2022/10/29 03:23:23;;;;;;;8.6;4.3;;;;;;;;;;;;;-76
2022/10/29 03:27:19;;;;;;;;;;;;;;;11.93;86.18164;102095.9;;;;-75
2022/10/29 03:32:19;;;;;;;;;;;;;;;11.94;85.95117;102111.4;;;;-75
2022/10/29 03:37:20;;;;;;;;;;;;;;;11.92;85.84766;102105.8;;;;-74
2022/10/29 03:42:19;;;;;;;;;;;;;;;11.93;85.90527;102097.8;;;;-74
2022/10/29 03:47:20;;;;;;;;;;;;;;;11.95;85.66504;102092;;;;-73
2022/10/29 03:52:19;;;;;;;;;;;;;;;11.93;85.89355;102090.6;;;;-74
2022/10/29 03:53:27;;;;;;;8;3.9;;;;;;;;;;;;;-76
2022/10/29 03:57:19;;;;;;;;;;;;;;;11.94;85.89746;102081.5;;;;-75
2022/10/29 04:02:19;;;;;;;;;;;;;;;11.96;86.21094;102081.5;;;;-75
2022/10/29 04:07:19;;;;;;;;;;;;;;;11.98;86.22559;102085;;;;-75
2022/10/29 04:12:22;;;;;;;;;;;;;;;11.99;85.69531;102099.7;;;;-75
2022/10/29 04:17:19;;;;;;;;;;;;;;;12.02;86.2793;102098.7;;;;-76
2022/10/29 04:22:19;;;;;;;;;;;;;;;12.03;85.41406;102096;;;;-75
2022/10/29 04:23:28;;;;;;;8;4.6;;;;;;;;;;;;;-75
2022/10/29 04:27:19;;;;;;;;;;;;;;;12.05;85.66406;102101.6;;;;-75
2022/10/29 04:32:19;;;;;;;;;;;;;;;12.08;85.77832;102101;;;;-75
2022/10/29 04:37:19;;;;;;;;;;;;;;;12.06;85.50879;102096.1;;;;-74
2022/10/29 04:42:19;;;;;;;;;;;;;;;12.08;85.23535;102091.6;;;;-74
2022/10/29 04:47:19;;;;;;;;;;;;;;;12.08;85.55664;102083.9;;;;-75
2022/10/29 04:52:19;;;;;;;;;;;;;;;12.1;85.46191;102081;;;;-74
2022/10/29 04:53:26;;;;;;;8.2;4.7;;;;;;;;;;;;;-74
2022/10/29 04:57:19;;;;;;;;;;;;;;;12.12;85.83105;102075.4;;;;-75
2022/10/29 05:02:19;;;;;;;;;;;;;;;12.14;85.89063;102061.1;;;;-75
2022/10/29 05:07:19;;;;;;;;;;;;;;;12.16;86.05078;102064;;;;-74
2022/10/29 05:12:20;;;;;;;;;;;;;;;12.17;86.12988;102061.9;;;;-76
2022/10/29 05:17:19;;;;;;;;;;;;;;;12.17;85.68652;102072.3;;;;-74
2022/10/29 05:22:37;;;;;;;;;;;;;;;12.29;85.6543;102065.1;;;;-75
2022/10/29 05:23:29;;;;;;;11.2;5.2;;;;;;;;;;;;;-75
2022/10/29 05:26:04;;;;;;;;;;;;;;;12.22;85.49805;102059.3;;;;-75
2022/10/29 05:31:03;;;;;;;;;;;;;;;12.22;85.59766;102041.6;;;;-75
2022/10/29 05:36:04;;;;;;;;;;;;;;;12.26;85.60449;102038.2;;;;-75
2022/10/29 05:41:04;;;;;;;;;;;;;;;12.27;85.58398;102037;;;;-74
2022/10/29 05:46:01;;;;;;;;;;;;;;;12.29;85.58789;102030;;;;-75
2022/10/29 05:51:01;;;;;;;;;;;;;;;12.31;85.45605;102023.1;;;;-76
2022/10/29 05:53:31;;;;;;;12.4;5.5;;;;;;;;;;;;;-74
2022/10/29 05:56:01;;;;;;;;;;;;;;;12.31;85.625;102018.9;;;;-75
2022/10/29 06:01:01;;;;;;;;;;;;;;;12.33;85.63965;102022.5;;;;-76
2022/10/29 06:06:01;;;;;;;;;;;;;;;12.36;86.06641;102027.7;;;;-75
2022/10/29 06:11:03;;;;;;;;;;;;;;;12.36;85.40234;102027.1;;;;-75
2022/10/29 06:16:02;;;;;;;;;;;;;;;12.38;85.59473;102022;;;;-75
2022/10/29 06:21:02;;;;;;;;;;;;;;;12.39;85.41895;102024.4;;;;-76
2022/10/29 06:23:30;;;;;;;12.4;5.7;;;;;;;;;;;;;-74
2022/10/29 06:26:02;;;;;;;;;;;;;;;12.41;85.7334;102030.5;;;;-75
2022/10/29 06:31:02;;;;;;;;;;;;;;;12.43;85.76953;102022.9;;;;-73
2022/10/29 06:36:04;;;;;;;;;;;;;;;12.45;86.10645;102014.6;;;;-72
2022/10/29 06:41:03;;;;;;;;;;;;;;;12.46;85.93066;102007.9;;;;-76
2022/10/29 06:46:01;;;;;;;;;;;;;;;12.47;86.34473;102019.2;;;;-75
2022/10/29 06:51:03;;;;;;;;;;;;;;;12.5;85.89453;102025;;;;-75
2022/10/29 06:53:31;;;;;;;18;7.1;;;;;;;;;;;;;-75
2022/10/29 06:56:01;;;;;;;;;;;;;;;12.53;86.37695;102020.2;;;;-74
2022/10/29 07:01:02;;;;;;;;;;;;;;;12.56;86.56055;102023.4;;;;-76
2022/10/29 07:06:04;;;;;;;;;;;;;;;12.59;86.6875;102016.3;;;;-74
2022/10/29 07:11:01;;;;;;;;;;;;;;;12.62;86.24023;102001.2;;;;-75
2022/10/29 07:16:04;;;;;;;;;;;;;;;12.63;86.55371;102000.3;;;;-74
2022/10/29 07:21:01;;;;;;;;;;;;;;;12.67;85.91699;102015.8;;;;-75
2022/10/29 07:23:33;;;;;;;14.4;7.1;;;;;;;;;;;;;-75
2022/10/29 07:26:01;;;;;;;;;;;;;;;12.7;85.79004;102014.8;;;;-76
2022/10/29 07:31:02;;;;;;;;;;;;;;;12.72;86.02832;102005.5;;;;-76
2022/10/29 07:36:01;;;;;;;;;;;;;;;12.75;85.94238;101999.8;;;;-75
2022/10/29 07:41:03;;;;;;;;;;;;;;;12.78;86.19434;101989.7;;;;-76
2022/10/29 07:46:01;;;;;;;;;;;;;;;12.82;85.86816;101980.8;;;;-74
2022/10/29 07:51:05;;;;;;;;;;;;;;;12.84;85.65137;101984;;;;-74
2022/10/29 07:53:35;;;;;;;13.4;6.8;;;;;;;;;;;;;-75
2022/10/29 07:56:02;;;;;;;;;;;;;;;12.9;85.8623;101994.9;;;;-77
2022/10/29 08:01:02;;;;;;;;;;;;;;;12.93;85.50098;101996.8;;;;-76
2022/10/29 08:06:06;;;;;;;;;;;;;;;12.97;85.6416;101992.2;;;;-75
2022/10/29 08:11:14;;;;;;;;;;;;;;;13;85.7041;101995.3;;;;-75
2022/10/29 08:16:01;;;;;;;;;;;;;;;13.05;85.5791;101994.2;;;;-75
2022/10/29 08:21:01;;;;;;;;;;;;;;;13.1;85.83398;101998.2;;;;-75
2022/10/29 08:23:35;;;;;;;13.7;6.3;;;;;;;;;;;;;-75
2022/10/29 08:26:01;;;;;;;;;;;;;;;13.16;85.82324;101994.4;;;;-77
2022/10/29 08:31:03;;;;;;;;;;;;;;;13.22;85.89063;102005.4;;;;-75
2022/10/29 08:36:03;;;;;;;;;;;;;;;13.27;85.93457;101994.2;;;;-75
2022/10/29 08:41:11;;;;;;;;;;;;;;;13.33;85.83594;101992.1;;;;-76
2022/10/29 08:46:04;;;;;;;;;;;;;;;13.37;85.67676;101983.5;;;;-75
2022/10/29 08:51:04;;;;;;;;;;;;;;;13.45;85.80176;101975.9;;;;-77
2022/10/29 08:53:38;;;;;;;12.2;6.2;;;;;;;;;;;;;-74
2022/10/29 08:56:01;;;;;;;;;;;;;;;13.53;85.08398;101978.9;;;;-75
2022/10/29 09:01:01;;;;;;;;;;;;;;;13.62;85.6123;101978.6;;;;-75
2022/10/29 09:06:03;;;;;;;;;;;;;;;13.72;85.00879;101971;;;;-76
2022/10/29 09:11:03;;;;;;;;;;;;;;;13.83;85.03027;101972.4;;;;-75
2022/10/29 09:16:17;;;;;;;;;;;;;;;13.96;84.84473;101967.8;;;;-76
2022/10/29 09:21:04;;;;;;;;;;;;;;;14.14;85.59082;101959.4;;;;-75
2022/10/29 09:23:43;;;;;;;14;6.3;;;;;;;;;;;;;-77
2022/10/29 09:26:04;;;;;;;;;;;;;;;14.32;85.40332;101945.9;;;;-76
2022/10/29 09:31:03;;;;;;;;;;;;;;;14.44;84.73535;101934.2;;;;-75
2022/10/29 09:36:03;;;;;;;;;;;;;;;14.58;85.83398;101930.9;;;;-76
2022/10/29 09:41:08;;;;;;;;;;;;;;;14.66;85.78027;101920.9;;;;-78
2022/10/29 09:46:04;;;;;;;;;;;;;;;14.79;85.74023;101922.8;;;;-75
2022/10/29 09:51:18;;;;;;;;;;;;;;;14.88;85.06641;101925.3;;;;-77
2022/10/29 09:53:41;;;;;;;15.6;7.3;;;;;;;;;;;;;-75
2022/10/29 09:56:01;;;;;;;;;;;;;;;14.93;85.52148;101916.2;;;;-73
2022/10/29 10:01:01;;;;;;;;;;;;;;;14.98;85.08398;101915.7;;;;-78
2022/10/29 10:06:11;;;;;;;;;;;;;;;15.07;85.6709;101897.6;;;;-76
2022/10/29 10:11:07;;;;;;;;;;;;;;;15.17;85.3457;101889.6;;;;-74
2022/10/29 10:16:07;;;;;;;;;;;;;;;15.46;84.95313;101888.7;;;;-75
2022/10/29 10:21:08;;;;;;;;;;;;;;;15.69;84.79688;101893.3;;;;-74
2022/10/29 10:23:46;;;;;;;19.2;8.9;;;;;;;;;;;;;-74
2022/10/29 10:26:02;;;;;;;;;;;;;;;15.99;84.32715;101895.7;;;;-75
2022/10/29 10:31:15;;;;;;;;;;;;;;;16.44;83.88672;101892.3;;;;-74
2022/10/29 10:36:04;;;;;;;;;;;;;;;16.83;83.08691;101887.9;;;;-75
2022/10/29 10:41:06;;;;;;;;;;;;;;;17.18;81.53418;101885.4;;;;-74
2022/10/29 10:46:06;;;;;;;;;;;;;;;17.52;81.31543;101877.7;;;;-73
2022/10/29 10:51:15;;;;;;;;;;;;;;;17.7;80.25977;101863.6;;;;-74
2022/10/29 10:53:50;;;;;;;18.5;8.1;;;;;;;;;;;;;-74
2022/10/29 10:56:01;;;;;;;;;;;;;;;18.03;79.2373;101850.9;;;;-74
2022/10/29 11:01:04;;;;;;;;;;;;;;;18.14;79.40234;101850.2;;;;-73
2022/10/29 11:06:08;;;;;;;;;;;;;;;18.16;79.24805;101846.3;;;;-75
2022/10/29 11:11:03;;;;;;;;;;;;;;;18.26;79.08496;101840.4;;;;-74
2022/10/29 11:16:03;;;;;;;;;;;;;;;18.49;78.64453;101840.2;;;;-74
2022/10/29 11:21:06;;;;;;;;;;;;;;;18.6;78.16699;101834.9;;;;-72
2022/10/29 11:23:50;;;;;;;16.4;7.1;;;;;;;;;;;;;-75
2022/10/29 11:26:02;;;;;;;;;;;;;;;18.64;79.24316;101840.7;;;;-75
2022/10/29 11:31:06;;;;;;;;;;;;;;;18.66;78.25586;101836.2;;;;-73
2022/10/29 11:36:04;;;;;;;;;;;;;;;18.73;78.22168;101833.8;;;;-74
2022/10/29 11:41:03;;;;;;;;;;;;;;;18.73;78.76367;101829.6;;;;-74
2022/10/29 11:46:07;;;;;;;;;;;;;;;18.76;78.2959;101827.4;;;;-75
2022/10/29 11:51:04;;;;;;;;;;;;;;;18.72;78.3125;101814.8;;;;-74
2022/10/29 11:53:57;;;;;;;14.5;6.4;;;;;;;;;;;;;-75
2022/10/29 11:56:07;;;;;;;;;;;;;;;18.74;78.53906;101800.7;;;;-74
2022/10/29 12:01:04;;;;;;;;;;;;;;;18.78;78.9873;101793.8;;;;-73
2022/10/29 12:06:09;;;;;;;;;;;;;;;18.83;78.88281;101791.9;;;;-76
2022/10/29 12:11:04;;;;;;;;;;;;;;;18.84;78.60352;101784.7;;;;-76
2022/10/29 12:16:06;;;;;;;;;;;;;;;18.85;78.63965;101775.5;;;;-75
2022/10/29 12:21:02;;;;;;;;;;;;;;;18.82;79.24219;101766.2;;;;-73
2022/10/29 12:23:53;;;;;;;15.7;6.2;;;;;;;;;;;;;-72
2022/10/29 12:26:06;;;;;;;;;;;;;;;18.89;79.07422;101754.6;;;;-76
2022/10/29 12:31:07;;;;;;;;;;;;;;;18.95;79.05176;101772.3;;;;-75
2022/10/29 12:36:05;;;;;;;;;;;;;;;18.98;78.83105;101770.3;;;;-75
2022/10/29 12:41:03;;;;;;;;;;;;;;;18.98;78.97754;101757.4;;;;-74
2022/10/29 12:46:04;;;;;;;;;;;;;;;19.01;78.87891;101753.3;;;;-75
2022/10/29 12:51:04;;;;;;;;;;;;;;;19.04;78.8418;101751.4;;;;-74
2022/10/29 12:54:00;;;;;;;13.4;5.8;;;;;;;;;;;;;-75
2022/10/29 12:56:01;;;;;;;;;;;;;;;19.06;78.94531;101739.7;;;;-77
2022/10/29 13:01:01;;;;;;;;;;;;;;;19.09;78.64746;101743.3;;;;-74
2022/10/29 13:06:14;;;;;;;;;;;;;;;19.11;79.02246;101734.4;;;;-74
2022/10/29 13:11:01;;;;;;;;;;;;;;;19.17;78.2666;101742.7;;;;-75
2022/10/29 13:16:09;;;;;;;;;;;;;;;19.26;78.26953;101737.2;;;;-76
2022/10/29 13:21:04;;;;;;;;;;;;;;;19.39;78.08984;101731.8;;;;-73
2022/10/29 13:24:04;;;;;;;16.4;6.4;;;;;;;;;;;;;-76
2022/10/29 13:26:01;;;;;;;;;;;;;;;19.5;77.19336;101726.9;;;;-74
2022/10/29 13:31:11;;;;;;;;;;;;;;;19.58;76.79883;101718.4;;;;-75
2022/10/29 13:36:03;;;;;;;;;;;;;;;19.57;76.64063;101706.5;;;;-74
2022/10/29 13:41:10;;;;;;;;;;;;;;;19.57;76.64063;101699.2;;;;-75
2022/10/29 13:46:09;;;;;;;;;;;;;;;19.56;76.55859;101694.8;;;;-75
2022/10/29 13:51:09;;;;;;;;;;;;;;;19.58;76.33496;101695.4;;;;-75
2022/10/29 13:53:57;;;;;;;15.6;6.2;;;;;;;;;;;;;-74
2022/10/29 13:56:02;;;;;;;;;;;;;;;19.62;76.20801;101698.3;;;;-74
2022/10/29 14:01:02;;;;;;;;;;;;;;;19.65;76.51758;101700.4;;;;-75
2022/10/29 14:06:05;;;;;;;;;;;;;;;19.68;76.47754;101692.7;;;;-74
2022/10/29 14:11:01;;;;;;;;;;;;;;;19.68;76.25098;101689;;;;-75
2022/10/29 14:16:24;;;;;;;;;;;;;;;19.65;76.17969;101685.3;;;;-75
2022/10/29 14:21:02;;;;;;;;;;;;;;;19.62;76.40137;101687.4;;;;-75
2022/10/29 14:24:05;;;;;;;13.1;6.2;;;;;;;;;;;;;-74
2022/10/29 14:26:02;;;;;;;;;;;;;;;19.56;76.41113;101691.6;;;;-76
2022/10/29 14:31:12;;;;;;;;;;;;;;;19.51;77.03711;101697;;;;-73
2022/10/29 14:36:03;;;;;;;;;;;;;;;19.43;77.18066;101689.5;;;;-75
2022/10/29 14:41:03;;;;;;;;;;;;;;;19.38;77.04688;101682.3;;;;-75
2022/10/29 14:46:15;;;;;;;;;;;;;;;19.32;77.34473;101683;;;;-74
2022/10/29 14:51:03;;;;;;;;;;;;;;;19.27;77.3916;101680.1;;;;-75
2022/10/29 14:54:05;;;;;;;13.7;5.9;;;;;;;;;;;;;-75
2022/10/29 14:56:02;;;;;;;;;;;;;;;19.22;77.6543;101673.9;;;;-74
2022/10/29 15:01:02;;;;;;;;;;;;;;;19.17;77.81445;101666.9;;;;-75
2022/10/29 15:06:15;;;;;;;;;;;;;;;19.11;78.05371;101666.5;;;;-74
2022/10/29 15:11:01;;;;;;;;;;;;;;;19.04;78.32129;101662.1;;;;-75
2022/10/29 15:16:03;;;;;;;;;;;;;;;18.98;78.48047;101660.1;;;;-74
2022/10/29 15:21:08;;;;;;;;;;;;;;;18.92;78.8418;101653.5;;;;-73
2022/10/29 15:24:07;;;;;;;14.8;6;;;;;;;;;;;;;-74
2022/10/29 15:26:06;;;;;;;;;;;;;;;18.84;79.20117;101644.3;;;;-74
2022/10/29 15:31:04;;;;;;;;;;;;;;;18.77;79.45898;101653.8;;;;-74
2022/10/29 15:36:02;;;;;;;;;;;;;;;18.69;79.83984;101652.8;;;;-75
2022/10/29 15:41:11;;;;;;;;;;;;;;;18.62;80.11914;101646;;;;-75
2022/10/29 15:46:02;;;;;;;;;;;;;;;18.55;80.17383;101643.6;;;;-74
2022/10/29 15:51:01;;;;;;;;;;;;;;;18.48;80.56836;101640.1;;;;-74
2022/10/29 15:54:08;;;;;;;11.4;5.4;;;;;;;;;;;;;-74
2022/10/29 15:56:02;;;;;;;;;;;;;;;18.4;80.76758;101632.2;;;;-74
2022/10/29 16:01:01;;;;;;;;;;;;;;;18.32;81.61035;101621.3;;;;-75
2022/10/29 16:06:03;;;;;;;;;;;;;;;18.24;82.59668;101622.9;;;;-74
2022/10/29 16:11:04;;;;;;;;;;;;;;;18.16;82.86035;101609.8;;;;-74
2022/10/29 16:16:01;;;;;;;;;;;;;;;18.07;82.53027;101597.4;;;;-75
2022/10/29 16:21:02;;;;;;;;;;;;;;;18;82.32617;101599.4;;;;-75
2022/10/29 16:24:11;;;;;;;12.1;5.6;;;;;;;;;;;;;-74
2022/10/29 16:26:03;;;;;;;;;;;;;;;17.9;82.24023;101595.6;;;;-74
2022/10/29 16:31:02;;;;;;;;;;;;;;;17.8;82.18945;101599.1;;;;-73
2022/10/29 16:36:01;;;;;;;;;;;;;;;17.7;82.24805;101601;;;;-75
2022/10/29 16:41:07;;;;;;;;;;;;;;;17.6;82.39941;101608.6;;;;-75
2022/10/29 16:46:05;;;;;;;;;;;;;;;17.51;82.44824;101605.2;;;;-75
2022/10/29 16:51:01;;;;;;;;;;;;;;;17.41;82.47656;101596.1;;;;-75
2022/10/29 16:54:10;;;;;;;12;5.5;;;;;;;;;;;;;-74
2022/10/29 16:56:01;;;;;;;;;;;;;;;17.32;82.57227;101587.9;;;;-74
2022/10/29 17:01:10;;;;;;;;;;;;;;;17.25;82.63672;101589.6;;;;-76
2022/10/29 17:06:05;;;;;;;;;;;;;;;17.18;82.60156;101582.8;;;;-73
2022/10/29 17:11:08;;;;;;;;;;;;;;;17.1;82.8125;101581.1;;;;-75
2022/10/29 17:16:04;;;;;;;;;;;;;;;17.02;82.94238;101586.1;;;;-74
2022/10/29 17:21:02;;;;;;;;;;;;;;;16.95;82.9834;101593.5;;;;-74
2022/10/29 17:24:13;;;;;;;13.1;5.9;;;;;;;;;;;;;-75
2022/10/29 17:26:02;;;;;;;;;;;;;;;16.88;83.00488;101595.3;;;;-74
2022/10/29 17:31:01;;;;;;;;;;;;;;;16.82;83.15039;101593.9;;;;-75
2022/10/29 17:36:08;;;;;;;;;;;;;;;16.74;83.11426;101590.6;;;;-74
2022/10/29 17:41:00;;;;;;;;;;;;;;;16.68;83.18262;101586.2;;;;-74
2022/10/29 17:46:01;;;;;;;;;;;;;;;16.63;83.37402;101582.5;;;;-75
2022/10/29 17:51:02;;;;;;;;;;;;;;;16.59;83.36719;101578;;;;-75
2022/10/29 17:54:18;;;;;;;16;7;;;;;;;;;;;;;-74
2022/10/29 17:56:05;;;;;;;;;;;;;;;16.56;83.68555;101584.7;;;;-74
2022/10/29 18:01:05;;;;;;;;;;;;;;;16.53;83.69141;101587.1;;;;-75
2022/10/29 18:06:06;;;;;;;;;;;;;;;16.49;84.15527;101592.1;;;;-76
2022/10/29 18:11:06;;;;;;;;;;;;;;;16.46;85.10059;101603.6;;;;-74
2022/10/29 18:16:03;;;;;;;;;;;;;;;16.42;85.3623;101606.3;;;;-74
2022/10/29 18:21:02;;;;;;;;;;;;;;;16.4;85.06543;101608.3;;;;-74
2022/10/29 18:24:18;;;;;;;17.5;8.3;;;;;;;;;;;;;-76
2022/10/29 18:26:20;;;;;;;;;;;;;;;16.37;84.80273;101611.5;;;;-75
2022/10/29 18:31:01;;;;;;;;;;;;;;;16.34;84.81836;101617;;;;-76
2022/10/29 18:36:01;;;;;;;;;;;;;;;16.29;85.01074;101612.2;;;;-74
2022/10/29 18:41:03;;;;;;;;;;;;;;;16.26;85.41992;101617.7;;;;-74
2022/10/29 18:46:02;;;;;;;;;;;;;;;16.25;85.12891;101612.7;;;;-74
2022/10/29 18:51:06;;;;;;;;;;;;;;;16.21;84.96387;101608.1;;;;-75
2022/10/29 18:54:18;;;;;;;18.9;8.6;;;;;;;;;;;;;-75
2022/10/29 18:56:01;;;;;;;;;;;;;;;16.17;84.93262;101602.4;;;;-75
2022/10/29 19:01:05;;;;;;;;;;;;;;;16.14;84.9834;101596.6;;;;-75
2022/10/29 19:06:05;;;;;;;;;;;;;;;16.09;84.86133;101594.9;;;;-75
2022/10/29 19:11:22;;;;;;;;;;;;;;;16.12;84.72266;101592.7;;;;-75
2022/10/29 19:16:13;;;;;;;;;;;;;;;16;84.77637;101587.9;;;;-75
2022/10/29 19:21:11;;;;;;;;;;;;;;;15.95;84.94629;101592.1;;;;-74
2022/10/29 19:24:20;;;;;;;17.2;7.9;;;;;;;;;;;;;-75
2022/10/29 19:26:10;;;;;;;;;;;;;;;15.9;85.02539;101595.7;;;;-75
2022/10/29 19:31:09;;;;;;;;;;;;;;;15.85;84.81543;101599.1;;;;-74
2022/10/29 19:36:10;;;;;;;;;;;;;;;15.78;84.83691;101608.2;;;;-75
2022/10/29 19:41:08;;;;;;;;;;;;;;;15.73;84.86035;101613.2;;;;-75
2022/10/29 19:46:08;;;;;;;;;;;;;;;15.69;84.67285;101619.3;;;;-74
2022/10/29 19:51:07;;;;;;;;;;;;;;;15.64;84.48438;101620.2;;;;-74
2022/10/29 19:54:23;;;;;;;17.1;6.9;;;;;;;;;;;;;-74
2022/10/29 19:56:08;;;;;;;;;;;;;;;15.58;84.64258;101613.4;;;;-74
2022/10/29 20:01:11;;;;;;;;;;;;;;;15.54;84.57715;101616.8;;;;-74
2022/10/29 20:06:09;;;;;;;;;;;;;;;15.49;84.62305;101612.6;;;;-76
2022/10/29 20:11:12;;;;;;;;;;;;;;;15.43;84.71191;101600.9;;;;-75
2022/10/29 20:16:09;;;;;;;;;;;;;;;15.37;84.72363;101613.1;;;;-75
2022/10/29 20:21:09;;;;;;;;;;;;;;;15.34;84.68457;101616.4;;;;-75
2022/10/29 20:24:26;;;;;;;14.6;6;;;;;;;;;;;;;-73
2022/10/29 20:26:08;;;;;;;;;;;;;;;15.3;84.96777;101616.8;;;;-75
2022/10/29 20:31:29;;;;;;;;;;;;;;;15.26;84.84766;101621.8;;;;-74
2022/10/29 20:36:08;;;;;;;;;;;;;;;15.22;85.12891;101620.3;;;;-74
2022/10/29 20:41:07;;;;;;;;;;;;;;;15.18;85.13477;101623.1;;;;-75
2022/10/29 20:46:07;;;;;;;;;;;;;;;15.16;85.14258;101624.7;;;;-75
2022/10/29 20:51:10;;;;;;;;;;;;;;;15.14;84.63477;101632.2;;;;-74
2022/10/29 20:54:25;;;;;;;14.9;5.8;;;;;;;;;;;;;-74
2022/10/29 20:56:08;;;;;;;;;;;;;;;15.13;85.00195;101636.8;;;;-74
2022/10/29 21:01:11;;;;;;;;;;;;;;;15.11;84.75293;101636;;;;-74
2022/10/29 21:06:09;;;;;;;;;;;;;;;15.07;84.6543;101643.2;;;;-75
2022/10/29 21:10:34;;;;;;;;;;;;;;;15.11;84.61914;101647.1;;;;-73
2022/10/29 21:11:05;;;;;;;;;;;;;;;15.11;84.40625;101646.9;;;;-75
2022/10/29 21:14:38;;;;;;;;;;;;;;;15.02;84.40039;101646.3;;;;-74
2022/10/29 21:19:38;;;;;;;;;;;;;;;14.97;84.43457;101655.4;;;;-74
2022/10/29 21:24:33;;;;;;;12;5.6;;;;;;;;;;;;;-73
2022/10/29 21:24:46;;;;;;;;;;;;;;;14.91;84.52441;101658.1;;;;-74
2022/10/29 21:29:38;;;;;;;;;;;;;;;14.89;84.44336;101661.3;;;;-74
2022/10/29 21:34:37;;;;;;;;;;;;;;;14.86;84.21484;101653.8;;;;-75
2022/10/29 21:39:39;;;;;;;;;;;;;;;14.84;84.25391;101645.9;;;;-76
2022/10/29 21:44:38;;;;;;;;;;;;;;;14.8;84.3584;101640.4;;;;-73
2022/10/29 21:49:38;;;;;;;;;;;;;;;14.78;84.83496;101643.6;;;;-74
2022/10/29 21:54:28;;;;;;;13.7;5.5;;;;;;;;;;;;;-74
2022/10/29 21:54:38;;;;;;;;;;;;;;;14.79;85.09375;101648.5;;;;-73
2022/10/29 21:59:38;;;;;;;;;;;;;;;14.81;85.43164;101646.7;;;;-75
2022/10/29 22:04:38;;;;;;;;;;;;;;;14.84;85.25879;101643.3;;;;-75
2022/10/29 22:09:38;;;;;;;;;;;;;;;14.88;85.13184;101651.1;;;;-77
2022/10/29 22:14:38;;;;;;;;;;;;;;;14.89;85.17969;101653.3;;;;-75
2022/10/29 22:19:38;;;;;;;;;;;;;;;14.86;84.94043;101650.4;;;;-75
2022/10/29 22:24:30;;;;;;;13.5;5.4;;;;;;;;;;;;;-75
2022/10/29 22:24:39;;;;;;;;;;;;;;;14.87;84.91797;101653.5;;;;-73
2022/10/29 22:29:38;;;;;;;;;;;;;;;14.87;85.19629;101655.9;;;;-74
2022/10/29 22:34:38;;;;;;;;;;;;;;;14.86;85.0293;101663.1;;;;-75
2022/10/29 22:39:38;;;;;;;;;;;;;;;14.84;84.77832;101662.8;;;;-75
2022/10/29 22:44:38;;;;;;;;;;;;;;;14.82;84.93164;101670.4;;;;-75
2022/10/29 22:49:38;;;;;;;;;;;;;;;14.81;85.04102;101674.1;;;;-73
2022/10/29 22:54:31;;;;;;;13.5;5.1;;;;;;;;;;;;;-74
2022/10/29 22:54:40;;;;;;;;;;;;;;;14.8;85.20508;101675.3;;;;-74
2022/10/29 22:59:38;;;;;;;;;;;;;;;14.78;84.88867;101680.8;;;;-74
2022/10/29 23:04:38;;;;;;;;;;;;;;;14.75;84.88379;101682.3;;;;-74
2022/10/29 23:09:38;;;;;;;;;;;;;;;14.73;84.84668;101676.8;;;;-75
2022/10/29 23:14:38;;;;;;;;;;;;;;;14.71;84.86719;101682.6;;;;-74
2022/10/29 23:19:38;;;;;;;;;;;;;;;14.69;84.89551;101681.1;;;;-75
2022/10/29 23:24:33;;;;;;;15.4;5.8;;;;;;;;;;;;;-75
2022/10/29 23:24:43;;;;;;;;;;;;;;;14.68;85.31543;101683.7;;;;-74
2022/10/29 23:29:38;;;;;;;;;;;;;;;14.64;84.98535;101676.4;;;;-74
2022/10/29 23:34:38;;;;;;;;;;;;;;;14.61;85.02539;101678.4;;;;-73
2022/10/29 23:39:38;;;;;;;;;;;;;;;14.58;84.97461;101678.1;;;;-75
2022/10/29 23:44:38;;;;;;;;;;;;;;;14.57;85.00488;101678.5;;;;-74
2022/10/29 23:49:38;;;;;;;;;;;;;;;14.54;85.07813;101679.7;;;;-74
2022/10/29 23:54:35;;;;;;;16.9;5.8;;;;;;;;;;;;;-74
2022/10/29 23:54:44;;;;;;;;;;;;;;;14.52;85.18555;101684.8;;;;-74
2022/10/29 23:59:39;;;;;;;;;;;;;;;14.5;85.2041;101686.5;;;;-74
